logo
Search for airport 
image banner adimage banner adimage banner ad
image banner ad

ED2135 - Dresden-Friedrichstadt Krhs.

Located in Dresden, Germany

ICAO - , IATA -

Data provided by Airmate  

General information

Coordinates: N51°3'30" E13°42'58"
Elevation is 438 feet MSL.
 
View others Airports in Saxony

Operational data

Special qualification required
Current time UTC:
Current local time:
Weather at : EDDC - Dresden ( 9 km )
METAR: EDDC 242120Z AUTO VRB01KT CAVOK 10/08 Q1028
TAF: TAF EDDC 241700Z 2418/2518 11004KT CAVOK BECMG 2507/2509 12010KT
View NOTAMs / SUP AIP / TFR affecting this airport [VIEW]
Communications frequencies: [VIEW]

Runways:

Airport contact information

Address: Dresden Germany

Satellite view of ED2135